createdAt,value
2023-05-14T00:00:47.444Z,73.67
2023-05-14T00:01:47.400Z,74.58
2023-05-14T00:02:47.458Z,74.69
2023-05-14T00:03:47.489Z,74.18
2023-05-14T00:04:47.372Z,74.48
2023-05-14T00:05:47.382Z,74.69
2023-05-14T00:06:47.330Z,75.09
2023-05-14T00:07:47.335Z,75.02
2023-05-14T00:08:47.305Z,74.89
2023-05-14T00:09:47.316Z,75.13
2023-05-14T00:10:47.302Z,75.54
2023-05-14T00:11:47.290Z,75.64
2023-05-14T00:12:47.257Z,75.40
2023-05-14T00:13:47.277Z,76.65
2023-05-14T00:14:47.257Z,76.62
2023-05-14T00:15:47.285Z,76.62
2023-05-14T00:16:47.202Z,75.91
2023-05-14T00:17:47.246Z,75.57
2023-05-14T00:18:47.235Z,74.85
2023-05-14T00:19:47.198Z,74.55
2023-05-14T00:20:47.159Z,74.55
2023-05-14T00:21:47.150Z,74.45
2023-05-14T00:22:47.128Z,74.35
2023-05-14T00:23:47.133Z,74.24
2023-05-14T00:24:47.127Z,74.04
2023-05-14T00:25:47.089Z,74.96
2023-05-14T00:26:47.079Z,74.85
2023-05-14T00:27:47.067Z,74.96
2023-05-14T00:28:47.076Z,74.35
2023-05-14T00:29:47.062Z,74.35
2023-05-14T00:30:47.024Z,74.38
2023-05-14T00:31:47.037Z,74.28
2023-05-14T00:32:47.037Z,74.58
2023-05-14T00:33:47.028Z,74.62
2023-05-14T00:34:46.974Z,75.64
2023-05-14T00:35:46.968Z,75.13
2023-05-14T00:36:46.957Z,75.33
2023-05-14T00:37:46.938Z,76.65
2023-05-14T00:38:46.939Z,76.04
2023-05-14T00:39:46.920Z,75.84
2023-05-14T00:40:46.898Z,75.23
2023-05-14T00:41:46.895Z,75.13
2023-05-14T00:42:46.891Z,75.13
2023-05-14T00:43:46.927Z,75.64
2023-05-14T00:44:46.859Z,75.40
2023-05-14T00:45:46.823Z,75.13
2023-05-14T00:46:46.876Z,75.54
2023-05-14T00:47:46.826Z,75.64
2023-05-14T00:48:46.836Z,75.84
2023-05-14T00:49:46.793Z,76.15
2023-05-14T00:50:46.772Z,76.56
2023-05-14T00:51:46.778Z,76.45
2023-05-14T00:52:46.893Z,76.82
2023-05-14T00:53:46.747Z,76.31
2023-05-14T00:54:46.726Z,75.91
2023-05-14T00:55:46.701Z,75.09
2023-05-14T00:56:46.703Z,74.28
2023-05-14T00:57:46.698Z,75.09
2023-05-14T00:58:46.670Z,75.60
2023-05-14T00:59:46.647Z,75.09
2023-05-14T01:00:46.688Z,74.89
2023-05-14T01:01:46.642Z,75.33
2023-05-14T01:02:46.713Z,75.54
2023-05-14T01:03:46.668Z,76.15
2023-05-14T01:04:46.599Z,75.64
2023-05-14T01:05:46.580Z,75.02
2023-05-14T01:06:46.603Z,75.84
2023-05-14T01:07:46.571Z,75.54
2023-05-14T01:08:46.571Z,75.74
2023-05-14T01:09:46.517Z,76.15
2023-05-14T01:10:46.531Z,75.74
2023-05-14T01:11:46.508Z,75.84
2023-05-14T01:12:46.488Z,75.74
2023-05-14T01:13:46.499Z,75.64
2023-05-14T01:14:46.466Z,75.74
2023-05-14T01:15:46.450Z,75.54
2023-05-14T01:16:46.518Z,76.45
2023-05-14T01:17:46.474Z,76.04
2023-05-14T01:18:46.439Z,76.65
2023-05-14T01:19:46.416Z,75.43
2023-05-14T01:20:46.402Z,75.33
2023-05-14T01:21:46.417Z,75.84
2023-05-14T01:22:46.367Z,76.90
2023-05-14T01:23:46.346Z,76.76
2023-05-14T01:24:46.347Z,76.56
2023-05-14T01:25:46.339Z,76.35
2023-05-14T01:26:46.326Z,76.56
2023-05-14T01:27:46.307Z,76.18
2023-05-14T01:28:46.290Z,76.35
2023-05-14T01:29:46.263Z,76.35
2023-05-14T01:30:46.282Z,76.35
2023-05-14T01:31:46.250Z,76.28
2023-05-14T01:32:46.246Z,76.69
2023-05-14T01:33:46.217Z,76.69
2023-05-14T01:34:46.245Z,76.45
2023-05-14T01:35:46.201Z,76.59
2023-05-14T01:36:46.177Z,76.79
2023-05-14T01:37:46.179Z,76.86
2023-05-14T01:38:46.152Z,77.17
2023-05-14T01:39:46.132Z,77.37
2023-05-14T01:40:46.162Z,77.67
2023-05-14T01:41:46.105Z,77.57
2023-05-14T01:42:46.108Z,76.86
2023-05-14T01:43:46.073Z,76.86
2023-05-14T01:44:46.083Z,77.87
2023-05-14T01:45:46.110Z,77.78
2023-05-14T01:46:46.056Z,76.92
2023-05-14T01:47:46.155Z,76.42
2023-05-14T01:48:46.022Z,76.42
2023-05-14T01:49:46.016Z,75.81
2023-05-14T01:50:46.007Z,75.60
2023-05-14T01:51:45.976Z,75.20
2023-05-14T01:52:45.998Z,75.74
2023-05-14T01:53:45.979Z,75.84
2023-05-14T01:54:45.963Z,76.15
2023-05-14T01:55:45.933Z,76.45
2023-05-14T01:56:45.919Z,76.15
2023-05-14T01:57:45.884Z,76.45
2023-05-14T01:58:45.919Z,76.65
2023-05-14T01:59:45.871Z,77.06
2023-05-14T02:00:45.868Z,76.35
2023-05-14T02:01:45.871Z,76.86
2023-05-14T02:02:45.879Z,76.96
2023-05-14T02:03:45.893Z,76.65
2023-05-14T02:04:45.870Z,76.76
2023-05-14T02:05:45.797Z,76.15
2023-05-14T02:06:45.785Z,76.35
2023-05-14T02:09:01.898Z,75.64
2023-05-14T02:10:02.889Z,76.04
2023-05-14T02:11:02.860Z,75.74
2023-05-14T02:12:02.860Z,75.27
2023-05-14T02:13:02.888Z,76.08
2023-05-14T02:14:02.846Z,76.69
2023-05-14T02:15:02.800Z,77.00
2023-05-14T02:16:02.879Z,76.79
2023-05-14T02:17:02.781Z,77.10
2023-05-14T02:18:02.828Z,77.30
2023-05-14T02:19:02.794Z,76.90
2023-05-14T02:20:02.745Z,77.10
2023-05-14T02:21:02.731Z,77.40
2023-05-14T02:22:02.753Z,76.79
2023-05-14T02:23:02.744Z,76.90
2023-05-14T02:24:02.690Z,76.69
2023-05-14T02:25:02.692Z,76.49
2023-05-14T02:26:02.672Z,76.28
2023-05-14T02:27:02.671Z,76.59
2023-05-14T02:28:02.662Z,77.51
2023-05-14T02:29:02.628Z,78.02
2023-05-14T02:30:02.613Z,77.40
2023-05-14T02:31:02.637Z,77.30
2023-05-14T02:32:02.610Z,78.05
2023-05-14T02:33:02.708Z,78.36
2023-05-14T02:34:02.566Z,78.05
2023-05-14T02:35:02.551Z,78.77
2023-05-14T02:36:02.558Z,78.83
2023-05-14T02:37:02.554Z,77.91
2023-05-14T02:38:02.516Z,78.42
2023-05-14T02:39:02.504Z,78.63
2023-05-14T02:40:02.515Z,78.53
2023-05-14T02:41:02.472Z,78.32
2023-05-14T02:42:02.485Z,78.42
2023-05-14T02:43:02.449Z,78.12
2023-05-14T02:44:02.439Z,77.78
2023-05-14T02:45:02.430Z,76.86
2023-05-14T02:46:02.433Z,76.86
2023-05-14T02:47:02.460Z,76.90
2023-05-14T02:48:02.432Z,77.51
2023-05-14T02:49:02.380Z,76.76
2023-05-14T02:50:02.378Z,77.20
2023-05-14T02:51:02.354Z,77.30
2023-05-14T02:52:02.480Z,77.71
2023-05-14T02:53:02.323Z,77.51
2023-05-14T02:54:02.305Z,77.61
2023-05-14T02:55:02.299Z,77.81
2023-05-14T02:56:02.285Z,77.81
2023-05-14T02:57:02.299Z,77.81
2023-05-14T02:58:02.259Z,77.81
2023-05-14T02:59:02.261Z,77.61
2023-05-14T03:00:02.282Z,77.61
2023-05-14T03:01:02.286Z,77.61
2023-05-14T03:02:02.248Z,77.47
2023-05-14T03:03:02.235Z,77.06
2023-05-14T03:04:02.185Z,77.10
2023-05-14T03:05:02.214Z,77.20
2023-05-14T03:06:02.184Z,76.79
2023-05-14T03:07:02.165Z,77.20
2023-05-14T03:08:02.138Z,78.22
2023-05-14T03:09:02.120Z,78.53
2023-05-14T03:10:02.117Z,78.32
2023-05-14T03:11:02.067Z,78.42
2023-05-14T03:12:02.036Z,78.02
2023-05-14T03:13:02.014Z,77.71
2023-05-14T03:14:01.994Z,77.51
2023-05-14T03:15:01.992Z,76.69
2023-05-14T03:16:02.002Z,77.40
2023-05-14T03:17:02.060Z,77.40
2023-05-14T03:18:01.967Z,76.69
2023-05-14T03:19:02.004Z,76.69
2023-05-14T03:20:01.976Z,76.79
2023-05-14T03:21:01.930Z,76.59
2023-05-14T03:22:01.908Z,76.69
2023-05-14T03:23:01.881Z,75.98
2023-05-14T03:24:01.895Z,76.08
2023-05-14T03:25:01.872Z,76.32
2023-05-14T03:26:01.848Z,76.53
2023-05-14T03:27:01.820Z,76.93
2023-05-14T03:28:01.822Z,76.73
2023-05-14T03:29:01.799Z,77.34
2023-05-14T03:30:01.831Z,77.75
2023-05-14T03:31:01.838Z,78.60
2023-05-14T03:32:01.772Z,78.05
2023-05-14T03:33:01.777Z,77.14
2023-05-14T03:34:01.772Z,77.85
2023-05-14T03:35:01.728Z,77.85
2023-05-14T03:36:01.731Z,77.64
2023-05-14T03:37:01.707Z,77.34
2023-05-14T03:38:01.715Z,76.93
2023-05-14T03:39:01.697Z,77.03
2023-05-14T03:40:01.667Z,76.83
2023-05-14T03:41:01.639Z,77.03
2023-05-14T03:42:01.646Z,77.44
2023-05-14T03:43:01.622Z,77.34
2023-05-14T03:44:01.634Z,78.60
2023-05-14T03:45:01.601Z,78.36
2023-05-14T03:46:01.590Z,78.46
2023-05-14T03:47:01.589Z,78.22
2023-05-14T03:48:01.628Z,77.24
2023-05-14T03:49:01.684Z,77.00
2023-05-14T03:50:01.526Z,76.90
2023-05-14T03:51:01.522Z,76.73
2023-05-14T03:52:01.508Z,76.62
2023-05-14T03:53:01.516Z,76.93
2023-05-14T03:54:01.523Z,77.03
2023-05-14T03:55:01.468Z,77.03
2023-05-14T03:56:01.452Z,76.73
2023-05-14T03:57:01.447Z,76.83
2023-05-14T03:58:01.449Z,76.59
2023-05-14T03:59:01.436Z,76.79
2023-05-14T04:00:01.428Z,76.69
2023-05-14T04:01:01.397Z,76.83
2023-05-14T04:02:01.399Z,77.10
2023-05-14T04:03:01.403Z,77.00
2023-05-14T04:04:01.494Z,77.00
2023-05-14T04:05:01.341Z,76.28
2023-05-14T04:06:01.322Z,76.39
2023-05-14T04:07:01.337Z,76.79
2023-05-14T04:08:01.320Z,76.59
2023-05-14T04:09:01.293Z,76.08
2023-05-14T04:10:03.448Z,75.67
2023-05-14T04:11:01.281Z,75.98
2023-05-14T04:12:01.266Z,75.98
2023-05-14T04:13:01.252Z,75.78
2023-05-14T04:14:01.242Z,76.28
2023-05-14T04:15:01.245Z,76.59
2023-05-14T04:16:01.270Z,76.39
2023-05-14T04:17:01.206Z,76.49
2023-05-14T04:18:01.258Z,76.49
2023-05-14T04:19:01.173Z,75.88
2023-05-14T04:20:01.154Z,75.67
2023-05-14T04:21:01.159Z,75.88
2023-05-14T04:22:01.157Z,76.18
2023-05-14T04:23:01.115Z,75.98
2023-05-14T04:24:01.101Z,76.49
2023-05-14T04:25:01.084Z,76.08
2023-05-14T04:26:01.099Z,77.20
2023-05-14T04:27:01.057Z,76.79
2023-05-14T04:28:01.051Z,76.59
2023-05-14T04:29:01.029Z,76.86
2023-05-14T04:30:01.038Z,76.65
2023-05-14T04:31:01.022Z,76.45
2023-05-14T04:32:01.158Z,75.60
2023-05-14T04:33:01.003Z,75.81
2023-05-14T04:34:00.958Z,75.60
2023-05-14T04:35:00.995Z,75.20
2023-05-14T04:36:00.953Z,75.30
2023-05-14T04:37:00.935Z,75.40
2023-05-14T04:38:00.913Z,75.50
2023-05-14T04:39:00.911Z,75.81
2023-05-14T04:40:00.937Z,75.70
2023-05-14T04:41:00.899Z,75.60
2023-05-14T04:42:00.864Z,75.70
2023-05-14T04:43:00.849Z,74.89
2023-05-14T04:44:00.837Z,74.85
2023-05-14T04:45:00.842Z,74.85
2023-05-14T04:46:00.813Z,74.76
2023-05-14T04:47:00.796Z,74.55
2023-05-14T04:48:00.843Z,74.24
2023-05-14T04:49:00.790Z,74.45
2023-05-14T04:50:00.775Z,74.65
2023-05-14T04:51:00.745Z,74.76
2023-05-14T04:52:00.735Z,74.65
2023-05-14T04:53:00.726Z,74.62
2023-05-14T04:54:00.765Z,74.21
2023-05-14T04:55:00.711Z,74.28
2023-05-14T04:56:00.676Z,73.39
2023-05-14T04:57:00.665Z,72.34
2023-05-14T04:58:00.648Z,71.26
2023-05-14T04:59:00.873Z,69.68
2023-05-14T05:00:00.616Z,68.84
2023-05-14T05:01:00.675Z,67.05
2023-05-14T05:02:00.600Z,65.27
2023-05-14T05:03:00.756Z,64.53
2023-05-14T05:04:00.698Z,62.96
2023-05-14T05:05:00.645Z,61.18
2023-05-14T05:06:00.546Z,59.72
2023-05-14T05:07:00.596Z,58.15
2023-05-14T05:08:00.572Z,57.62
2023-05-14T05:09:01.998Z,56.09
2023-05-14T05:10:00.662Z,55.66
2023-05-14T05:11:00.498Z,55.35
2023-05-14T05:12:00.525Z,55.13
2023-05-14T05:13:00.539Z,54.40
2023-05-14T05:14:00.581Z,53.90
2023-05-14T05:15:00.438Z,53.87
2023-05-14T05:16:00.503Z,53.67
2023-05-14T05:17:00.420Z,53.47
2023-05-14T05:18:00.436Z,53.27
2023-05-14T05:19:00.460Z,53.27
2023-05-14T05:20:00.382Z,52.84
2023-05-14T05:21:00.374Z,52.64
2023-05-14T05:22:00.341Z,52.42
2023-05-14T05:23:00.348Z,52.42
2023-05-14T05:24:00.336Z,52.42
2023-05-14T05:25:00.330Z,52.82
2023-05-14T05:26:00.300Z,52.62
2023-05-14T05:27:00.285Z,52.84
2023-05-14T05:28:00.312Z,52.72
2023-05-14T05:29:00.282Z,52.42
2023-05-14T05:30:00.250Z,53.22
2023-05-14T05:31:00.325Z,53.14
2023-05-14T05:32:00.216Z,52.52
2023-05-14T05:33:00.249Z,52.75
2023-05-14T05:34:00.184Z,52.55
2023-05-14T05:35:00.183Z,52.44
2023-05-14T05:36:00.161Z,52.42
2023-05-14T05:37:00.152Z,52.72
2023-05-14T05:38:01.626Z,52.72
2023-05-14T05:39:00.142Z,52.72
2023-05-14T05:40:00.110Z,52.72
2023-05-14T05:41:00.131Z,52.62
2023-05-14T05:42:00.105Z,52.92
2023-05-14T05:43:00.116Z,52.92
2023-05-14T05:44:00.100Z,52.89
2023-05-14T05:45:00.056Z,52.92
2023-05-14T05:46:00.126Z,52.72
2023-05-14T05:47:00.545Z,52.62
2023-05-14T05:48:01.985Z,52.92
2023-05-14T05:49:05.015Z,52.92
2023-05-14T05:49:59.976Z,53.32
2023-05-14T05:50:59.992Z,53.12
2023-05-14T05:51:59.968Z,53.02
2023-05-14T05:52:59.945Z,52.82
2023-05-14T05:53:59.928Z,53.09
2023-05-14T05:54:59.925Z,53.00
2023-05-14T05:55:59.905Z,52.72
2023-05-14T05:56:59.908Z,52.82
2023-05-14T05:57:59.884Z,52.52
2023-05-14T05:58:59.869Z,52.62
2023-05-14T05:59:59.852Z,53.25
2023-05-14T06:00:59.872Z,53.02
2023-05-14T06:01:59.858Z,52.72
2023-05-14T06:02:59.832Z,53.14
2023-05-14T06:03:59.800Z,54.27
2023-05-14T06:04:59.821Z,53.95
2023-05-14T06:05:59.800Z,53.42
2023-05-14T06:06:59.762Z,53.02
2023-05-14T06:07:59.747Z,52.75
2023-05-14T06:08:59.732Z,52.94
2023-05-14T06:09:59.752Z,52.92
2023-05-14T06:10:59.735Z,53.67
2023-05-14T06:11:59.691Z,53.67
2023-05-14T06:12:59.683Z,53.45
2023-05-14T06:13:59.665Z,53.55
2023-05-14T06:14:59.676Z,53.67
2023-05-14T06:15:59.688Z,53.97
2023-05-14T06:16:59.660Z,53.64
2023-05-14T06:17:59.662Z,53.75
2023-05-14T06:18:59.658Z,53.34
2023-05-14T06:19:59.603Z,53.34
2023-05-14T06:20:59.601Z,53.22
2023-05-14T06:21:59.561Z,53.19
2023-05-14T06:22:59.548Z,52.80
2023-05-14T06:23:59.534Z,52.89
2023-05-14T06:24:59.588Z,53.19
2023-05-14T06:25:59.542Z,52.89
2023-05-14T06:26:59.502Z,53.09
2023-05-14T06:27:59.479Z,52.47
2023-05-14T06:28:59.480Z,52.37
2023-05-14T06:29:59.467Z,53.00
2023-05-14T06:30:59.440Z,53.39
2023-05-14T06:31:59.502Z,51.67
2023-05-14T06:32:59.462Z,52.09
2023-05-14T06:33:59.404Z,52.29
2023-05-14T06:34:59.429Z,51.97
2023-05-14T06:35:59.377Z,51.69
2023-05-14T06:36:59.369Z,52.62
2023-05-14T06:37:59.360Z,52.29
2023-05-14T06:38:59.359Z,51.69
2023-05-14T06:39:59.326Z,52.82
2023-05-14T06:40:59.314Z,52.82
2023-05-14T06:41:59.295Z,53.02
2023-05-14T06:42:59.282Z,53.42
2023-05-14T06:43:59.282Z,54.02
2023-05-14T06:44:59.258Z,53.39
2023-05-14T06:45:59.246Z,53.80
2023-05-14T06:46:59.248Z,52.67
2023-05-14T06:47:59.338Z,51.97
2023-05-14T06:48:59.708Z,52.77
2023-05-14T06:49:59.216Z,52.57
2023-05-14T06:50:59.189Z,52.37
2023-05-14T06:51:59.169Z,52.04
2023-05-14T06:52:59.186Z,52.14
2023-05-14T06:53:59.192Z,52.07
2023-05-14T06:54:59.132Z,52.57
2023-05-14T06:55:59.121Z,53.30
2023-05-14T06:56:59.110Z,52.89
2023-05-14T06:57:59.089Z,52.67
2023-05-14T06:58:59.102Z,52.17
2023-05-14T06:59:59.059Z,51.94
2023-05-14T07:00:59.048Z,51.74
2023-05-14T07:01:59.049Z,51.94
2023-05-14T07:02:59.094Z,52.24
2023-05-14T07:03:59.049Z,51.64
2023-05-14T07:04:59.006Z,52.74
2023-05-14T07:05:58.988Z,51.62
2023-05-14T07:06:58.990Z,51.89
2023-05-14T07:07:58.990Z,50.89
2023-05-14T07:08:58.949Z,52.02
2023-05-14T07:09:58.938Z,51.82
2023-05-14T07:10:58.925Z,52.47
2023-05-14T07:11:58.911Z,52.67
2023-05-14T07:12:58.911Z,53.34
2023-05-14T07:13:58.877Z,53.64
2023-05-14T07:14:58.857Z,53.05
2023-05-14T07:15:58.851Z,51.92
2023-05-14T07:16:58.905Z,52.55
2023-05-14T07:17:58.866Z,53.32
2023-05-14T07:18:58.840Z,53.02
2023-05-14T07:19:58.803Z,52.92
2023-05-14T07:20:58.792Z,52.29
2023-05-14T07:21:58.835Z,52.39
2023-05-14T07:22:58.764Z,51.59
2023-05-14T07:23:58.753Z,52.80
2023-05-14T07:24:58.738Z,51.39
2023-05-14T07:25:58.731Z,52.19
2023-05-14T07:26:58.747Z,51.47
2023-05-14T07:27:58.686Z,51.92
2023-05-14T07:28:58.697Z,51.42
2023-05-14T07:29:58.680Z,51.69
2023-05-14T07:30:58.715Z,51.27
2023-05-14T07:31:58.641Z,52.39
2023-05-14T07:32:58.676Z,51.67
2023-05-14T07:33:58.616Z,51.07
2023-05-14T07:34:58.613Z,51.17
2023-05-14T07:35:58.629Z,51.04
2023-05-14T07:36:58.579Z,51.75
2023-05-14T07:37:58.567Z,52.55
2023-05-14T07:38:58.566Z,51.45
2023-05-14T07:39:58.561Z,50.67
2023-05-14T07:40:58.549Z,50.95
2023-05-14T07:41:58.512Z,51.42
2023-05-14T07:42:58.504Z,51.12
2023-05-14T07:43:58.485Z,51.15
2023-05-14T07:44:58.498Z,51.07
2023-05-14T07:45:58.477Z,51.09
2023-05-14T07:46:58.492Z,51.77
2023-05-14T07:47:58.659Z,52.37
2023-05-14T07:48:58.430Z,51.94
2023-05-14T07:49:58.404Z,51.20
2023-05-14T07:50:58.418Z,50.79
2023-05-14T07:51:58.384Z,51.59
2023-05-14T07:52:58.376Z,52.32
2023-05-14T07:53:58.354Z,51.92
2023-05-14T07:54:58.352Z,50.04
2023-05-14T07:55:58.353Z,50.04
2023-05-14T07:56:58.321Z,50.84
2023-05-14T07:57:58.302Z,50.79
2023-05-14T07:58:58.304Z,50.35
2023-05-14T07:59:58.284Z,51.27
2023-05-14T08:00:58.287Z,52.07
2023-05-14T08:01:58.354Z,51.22
2023-05-14T08:02:58.379Z,51.02
2023-05-14T08:03:58.331Z,50.70
2023-05-14T08:04:58.214Z,50.00
2023-05-14T08:05:58.225Z,49.90
2023-05-14T08:06:58.177Z,50.37
2023-05-14T08:07:58.183Z,49.95
2023-05-14T08:08:58.172Z,50.25
2023-05-14T08:09:58.151Z,49.85
2023-05-14T08:12:14.244Z,49.15
2023-05-14T08:13:15.193Z,49.77
2023-05-14T08:14:15.184Z,49.45
2023-05-14T08:15:15.204Z,50.99
2023-05-14T08:16:15.180Z,51.10
2023-05-14T08:17:15.219Z,51.40
2023-05-14T08:18:15.153Z,50.90
2023-05-14T08:19:15.174Z,50.07
2023-05-14T08:20:15.119Z,50.45
2023-05-14T08:21:15.087Z,50.35
2023-05-14T08:22:15.084Z,51.15
2023-05-14T08:23:15.116Z,50.87
2023-05-14T08:24:15.118Z,49.18
2023-05-14T08:25:15.060Z,50.49
2023-05-14T08:26:15.039Z,50.70
2023-05-14T08:27:15.040Z,52.25
2023-05-14T08:28:15.059Z,51.54
2023-05-14T08:29:16.598Z,51.59
2023-05-14T08:30:15.050Z,53.37
2023-05-14T08:31:15.067Z,51.82
2023-05-14T08:32:22.899Z,50.99
2023-05-14T08:33:14.974Z,50.52
2023-05-14T08:34:14.958Z,50.12
2023-05-14T08:35:14.923Z,50.60
2023-05-14T08:36:14.898Z,49.27
2023-05-14T08:37:14.956Z,48.88
2023-05-14T08:38:14.943Z,49.53
2023-05-14T08:39:14.978Z,48.73
2023-05-14T08:40:14.880Z,48.61
2023-05-14T08:41:14.836Z,47.39
2023-05-14T08:42:14.843Z,47.21
2023-05-14T08:43:14.833Z,47.41
2023-05-14T08:44:14.923Z,47.31
2023-05-14T08:45:14.812Z,48.01
2023-05-14T08:46:14.953Z,47.41
2023-05-14T08:47:14.767Z,47.03
2023-05-14T08:48:14.918Z,47.93
2023-05-14T08:49:14.827Z,49.01
2023-05-14T08:50:14.733Z,48.65
2023-05-14T08:51:14.731Z,48.21
2023-05-14T08:52:14.953Z,47.99
2023-05-14T08:53:14.703Z,47.59
2023-05-14T08:54:14.709Z,46.87
2023-05-14T08:55:14.660Z,46.87
2023-05-14T08:56:14.637Z,46.57
2023-05-14T08:57:14.695Z,46.67
2023-05-14T08:58:14.630Z,46.03
2023-05-14T08:59:14.598Z,45.43
2023-05-14T09:00:14.647Z,47.00
2023-05-14T09:01:14.642Z,46.92
2023-05-14T09:02:14.627Z,46.70
2023-05-14T09:03:14.591Z,44.67
2023-05-14T09:04:14.577Z,43.66
2023-05-14T09:05:14.627Z,45.07
2023-05-14T09:06:14.526Z,42.86
2023-05-14T09:07:14.541Z,44.48
2023-05-14T09:08:14.488Z,45.11
2023-05-14T09:09:14.501Z,43.93
2023-05-14T09:10:14.500Z,47.30
2023-05-14T09:11:14.433Z,49.40
2023-05-14T09:12:14.516Z,48.43
2023-05-14T09:13:14.422Z,48.83
2023-05-14T09:14:14.480Z,47.98
2023-05-14T09:15:14.440Z,49.62
2023-05-14T09:16:14.413Z,49.50
2023-05-14T09:17:14.395Z,48.41
2023-05-14T09:18:14.396Z,47.41
2023-05-14T09:19:14.443Z,47.31
2023-05-14T09:20:14.332Z,46.72
2023-05-14T09:21:14.300Z,47.19
2023-05-14T09:22:14.327Z,45.78
2023-05-14T09:23:14.295Z,46.77
2023-05-14T09:24:14.312Z,47.03
2023-05-14T09:25:14.353Z,48.55
2023-05-14T09:26:14.302Z,49.77
2023-05-14T09:27:14.237Z,50.24
2023-05-14T09:28:14.237Z,49.12
2023-05-14T09:29:14.210Z,48.02
2023-05-14T09:30:14.240Z,47.92
2023-05-14T09:31:14.206Z,47.16
2023-05-14T09:32:14.186Z,46.41
2023-05-14T09:33:14.153Z,47.90
2023-05-14T09:34:14.149Z,48.40
2023-05-14T09:35:14.317Z,48.30
2023-05-14T09:36:14.169Z,46.46
2023-05-14T09:37:14.109Z,47.20
2023-05-14T09:38:14.091Z,47.71
2023-05-14T09:39:14.077Z,47.40
2023-05-14T09:40:14.115Z,47.50
2023-05-14T09:41:14.047Z,47.63
2023-05-14T09:42:14.046Z,47.48
2023-05-14T09:43:14.029Z,45.42
2023-05-14T09:44:14.107Z,45.37
2023-05-14T09:45:14.028Z,45.48
2023-05-14T09:46:14.041Z,44.34
2023-05-14T09:47:13.987Z,44.24
2023-05-14T09:48:14.015Z,43.90
2023-05-14T09:49:13.958Z,43.60
2023-05-14T09:50:13.974Z,42.31
2023-05-14T09:51:13.932Z,42.80
2023-05-14T09:52:13.915Z,40.22
2023-05-14T09:53:13.947Z,39.89
2023-05-14T09:54:13.893Z,40.88
2023-05-14T09:55:13.883Z,40.76
2023-05-14T09:56:13.861Z,39.55
2023-05-14T09:57:13.837Z,38.42
2023-05-14T09:58:13.842Z,38.53
2023-05-14T09:59:13.826Z,37.83
2023-05-14T10:00:13.814Z,38.40
2023-05-14T10:01:13.814Z,38.23
2023-05-14T10:02:13.789Z,38.80
2023-05-14T10:03:13.839Z,38.11
2023-05-14T10:04:13.795Z,39.00
2023-05-14T10:05:13.751Z,37.91
2023-05-14T10:06:13.752Z,38.42
2023-05-14T10:07:13.732Z,37.83
2023-05-14T10:08:13.767Z,39.45
2023-05-14T10:09:13.794Z,39.97
2023-05-14T10:10:13.730Z,41.52
2023-05-14T10:11:13.666Z,42.85
2023-05-14T10:12:13.715Z,41.83
2023-05-14T10:13:13.724Z,41.53
2023-05-14T10:14:13.681Z,41.52
2023-05-14T10:15:13.624Z,41.66
2023-05-14T10:16:13.617Z,42.27
2023-05-14T10:17:13.661Z,41.61
2023-05-14T10:18:13.798Z,42.83
2023-05-14T10:19:13.635Z,43.30
2023-05-14T10:20:13.623Z,42.53
2023-05-14T10:21:13.534Z,42.91
2023-05-14T10:22:13.571Z,43.16
2023-05-14T10:23:13.503Z,41.93
2023-05-14T10:24:13.505Z,41.09
2023-05-14T10:25:13.562Z,41.38
2023-05-14T10:26:13.463Z,41.02
2023-05-14T10:27:13.514Z,40.22
2023-05-14T10:28:13.443Z,39.57
2023-05-14T10:29:13.451Z,39.75
2023-05-14T10:30:13.418Z,37.75
2023-05-14T10:31:13.450Z,38.62
2023-05-14T10:32:13.435Z,38.54
2023-05-14T10:33:13.467Z,39.85
2023-05-14T10:34:13.363Z,40.15
2023-05-14T10:35:13.368Z,38.82
2023-05-14T10:36:13.361Z,38.60
2023-05-14T10:37:13.335Z,38.32
2023-05-14T10:38:13.378Z,38.40
2023-05-14T10:39:13.314Z,38.39
2023-05-14T10:40:13.291Z,38.07
2023-05-14T10:41:13.292Z,38.13
2023-05-14T10:42:13.288Z,38.64
2023-05-14T10:43:13.252Z,38.58
2023-05-14T10:44:13.250Z,39.07
2023-05-14T10:45:13.293Z,39.47
2023-05-14T10:46:13.284Z,40.19
2023-05-14T10:47:13.203Z,41.28
2023-05-14T10:48:13.232Z,39.55
2023-05-14T10:49:13.188Z,38.62
2023-05-14T10:50:13.188Z,41.00
2023-05-14T10:51:13.398Z,42.81
2023-05-14T10:52:13.139Z,43.51
2023-05-14T10:53:13.130Z,42.25
2023-05-14T10:54:13.141Z,40.60
2023-05-14T10:55:13.175Z,39.47
2023-05-14T10:56:13.113Z,39.28
2023-05-14T10:57:13.106Z,38.98
2023-05-14T10:58:13.101Z,39.06
2023-05-14T10:59:13.055Z,38.62
2023-05-14T11:00:13.068Z,38.60
2023-05-14T11:01:13.129Z,38.10
2023-05-14T11:02:13.089Z,39.00
2023-05-14T11:03:13.021Z,40.44
2023-05-14T11:04:13.109Z,40.68
2023-05-14T11:05:12.994Z,40.86
2023-05-14T11:06:13.089Z,40.30
2023-05-14T11:07:12.968Z,39.57
2023-05-14T11:08:13.683Z,38.07
2023-05-14T11:09:12.979Z,38.62
2023-05-14T11:10:12.976Z,38.90
2023-05-14T11:11:12.891Z,36.21
2023-05-14T11:12:12.904Z,36.49
2023-05-14T11:13:12.877Z,38.49
2023-05-14T11:14:13.035Z,37.56
2023-05-14T11:15:12.880Z,37.85
2023-05-14T11:16:22.792Z,36.87
2023-05-14T11:17:12.865Z,37.85
2023-05-14T11:18:12.922Z,38.06
2023-05-14T11:19:12.912Z,36.29
2023-05-14T11:20:12.820Z,35.63
2023-05-14T11:21:12.820Z,37.41
2023-05-14T11:22:12.814Z,36.92
2023-05-14T11:23:12.755Z,37.04
2023-05-14T11:24:12.761Z,37.81
2023-05-14T11:25:12.758Z,37.91
2023-05-14T11:26:12.785Z,36.23
2023-05-14T11:27:12.715Z,37.34
2023-05-14T11:28:12.698Z,36.80
2023-05-14T11:29:12.742Z,36.88
2023-05-14T11:30:12.698Z,37.08
2023-05-14T11:31:12.674Z,36.27
2023-05-14T11:32:12.698Z,36.31
2023-05-14T11:33:12.689Z,36.61
2023-05-14T11:34:12.611Z,36.88
2023-05-14T11:35:12.592Z,36.69
2023-05-14T11:36:12.652Z,40.07
2023-05-14T11:37:12.561Z,36.98
2023-05-14T11:38:12.582Z,36.25
2023-05-14T11:39:12.604Z,36.34
2023-05-14T11:40:12.524Z,36.24
2023-05-14T11:41:12.545Z,35.55
2023-05-14T11:42:12.525Z,36.59
2023-05-14T11:43:12.525Z,38.06
2023-05-14T11:44:12.489Z,38.13
2023-05-14T11:45:12.459Z,35.75
2023-05-14T11:46:12.519Z,36.88
2023-05-14T11:47:12.471Z,36.90
2023-05-14T11:48:12.476Z,35.09
2023-05-14T11:49:12.422Z,35.47
2023-05-14T11:50:12.424Z,35.05
2023-05-14T11:51:12.386Z,35.43
2023-05-14T11:52:12.434Z,36.04
2023-05-14T11:53:12.352Z,36.08
2023-05-14T11:54:12.361Z,36.61
2023-05-14T11:55:12.352Z,35.83
2023-05-14T11:56:12.334Z,36.33
2023-05-14T11:57:12.334Z,36.38
2023-05-14T11:58:12.325Z,37.17
2023-05-14T11:59:12.282Z,36.60
2023-05-14T12:00:12.277Z,36.84
2023-05-14T12:01:12.278Z,37.63
2023-05-14T12:02:12.320Z,37.90
2023-05-14T12:03:12.411Z,38.50
2023-05-14T12:04:12.288Z,40.20
2023-05-14T12:05:12.221Z,39.11
2023-05-14T12:06:12.259Z,38.34
2023-05-14T12:07:12.176Z,38.81
2023-05-14T12:08:12.168Z,38.06
2023-05-14T12:09:12.201Z,37.99
2023-05-14T12:10:12.153Z,39.29
2023-05-14T12:11:12.296Z,39.67
2023-05-14T12:12:12.157Z,39.07
2023-05-14T12:13:12.105Z,39.07
2023-05-14T12:14:12.125Z,40.16
2023-05-14T12:15:12.129Z,39.29
2023-05-14T12:16:12.183Z,39.35
2023-05-14T12:17:12.063Z,37.90
2023-05-14T12:18:23.491Z,39.01
2023-05-14T12:19:12.050Z,38.53
2023-05-14T12:20:12.061Z,40.32
2023-05-14T12:21:12.036Z,41.39
2023-05-14T12:22:12.065Z,42.67
2023-05-14T12:23:11.993Z,39.80
2023-05-14T12:24:11.960Z,40.34
2023-05-14T12:25:11.989Z,40.54
2023-05-14T12:26:11.951Z,41.88
2023-05-14T12:27:11.924Z,42.29
2023-05-14T12:28:11.931Z,43.81
2023-05-14T12:29:11.916Z,43.31
2023-05-14T12:30:21.392Z,44.63
2023-05-14T12:31:11.912Z,45.95
2023-05-14T12:32:11.864Z,47.47
2023-05-14T12:33:11.898Z,50.89
2023-05-14T12:34:11.900Z,50.37
2023-05-14T12:35:11.835Z,52.27
2023-05-14T12:36:21.302Z,55.05
2023-05-14T12:37:11.798Z,59.86
2023-05-14T12:38:11.780Z,59.59
2023-05-14T12:39:11.836Z,60.78
2023-05-14T12:40:11.992Z,67.41
2023-05-14T12:41:11.851Z,66.80
2023-05-14T12:42:11.737Z,69.05
2023-05-14T12:43:11.731Z,70.02
2023-05-14T12:44:11.825Z,71.57
2023-05-14T12:45:11.690Z,73.05
2023-05-14T12:46:11.694Z,73.11
2023-05-14T12:47:11.747Z,76.31
2023-05-14T12:48:11.740Z,74.49
2023-05-14T12:49:11.683Z,73.65
2023-05-14T12:50:11.652Z,75.20
2023-05-14T12:51:11.797Z,78.09
2023-05-14T12:53:11.682Z,75.91
2023-05-14T12:54:11.572Z,77.28
2023-05-14T12:55:11.617Z,75.98
2023-05-14T12:56:11.564Z,77.25